Time;durP1;ratioP1;P1;durP2;ratioP2;P2;SDS_P1;SDS_P2;PMS_P1;PMS_P2;Temp;Humidity;BMP_temperature;BMP_pressure;BME280_temperature;BME280_humidity;BME280_pressure;Samples;Min_cycle;Max_cycle;Signal;HPM_P1;HPM_P2
2023/06/03 17:04:02;;;;;;;15.50;14.50;;;25.50;57.00;;;;;;5134014;23;20487;-70
2023/06/03 17:06:28;;;;;;;15.20;14.10;;;25.30;56.50;;;;;;4973545;28;21047;-71
2023/06/03 17:08:56;;;;;;;13.87;13.07;;;25.30;56.70;;;;;;4979085;28;20840;-71
2023/06/03 17:11:23;;;;;;;14.23;13.23;;;25.20;57.10;;;;;;4972017;28;20455;-72
2023/06/03 17:13:49;;;;;;;14.80;13.70;;;25.20;57.00;;;;;;4973696;28;20673;-71
2023/06/03 17:16:16;;;;;;;13.57;12.67;;;25.20;57.20;;;;;;4973933;28;20459;-71
2023/06/03 17:18:43;;;;;;;14.73;13.93;;;25.20;57.00;;;;;;4973820;28;20455;-72
2023/06/03 17:21:11;;;;;;;14.10;13.20;;;25.20;57.10;;;;;;4973785;28;20945;-72
2023/06/03 17:23:37;;;;;;;14.03;13.13;;;25.10;57.50;;;;;;4973643;28;20483;-72
2023/06/03 17:26:04;;;;;;;14.97;14.17;;;25.00;57.70;;;;;;4973672;28;20460;-72
2023/06/03 17:28:31;;;;;;;15.27;14.27;;;25.00;58.20;;;;;;4973670;28;20487;-72
2023/06/03 17:30:58;;;;;;;14.17;13.30;;;24.80;58.20;;;;;;4973825;28;20867;-72
2023/06/03 17:33:25;;;;;;;13.87;13.00;;;24.80;58.70;;;;;;4973528;28;20451;-72
2023/06/03 17:35:52;;;;;;;14.07;13.17;;;24.80;58.60;;;;;;4973410;28;20451;-72
2023/06/03 17:38:20;;;;;;;15.03;14.17;;;24.80;58.90;;;;;;4973230;28;20458;-72
2023/06/03 17:40:46;;;;;;;15.27;14.07;;;24.80;59.00;;;;;;4973516;28;20461;-72
2023/06/03 17:43:13;;;;;;;15.80;15.00;;;24.70;59.10;;;;;;4973291;28;20463;-72
2023/06/03 17:45:40;;;;;;;15.33;14.23;;;24.70;58.80;;;;;;4973672;28;20455;-72
2023/06/03 17:48:07;;;;;;;16.07;15.17;;;24.60;59.30;;;;;;4973124;28;20483;-72
2023/06/03 17:50:33;;;;;;;17.07;15.80;;;24.50;59.40;;;;;;4973096;28;20447;-72
2023/06/03 17:53:00;;;;;;;16.10;15.00;;;24.40;59.60;;;;;;4973473;28;20460;-71
2023/06/03 17:55:28;;;;;;;17.33;16.23;;;24.30;59.20;;;;;;4972168;28;20510;-72
2023/06/03 17:57:55;;;;;;;17.93;16.93;;;24.30;59.40;;;;;;4973098;28;20462;-71
2023/06/03 18:00:23;;;;;;;16.47;15.57;;;24.20;59.40;;;;;;4973027;28;20707;-72
2023/06/03 18:02:50;;;;;;;15.97;14.97;;;24.10;59.50;;;;;;4972801;28;20503;-72
2023/06/03 18:05:17;;;;;;;15.93;14.73;;;24.10;59.90;;;;;;4973230;28;20478;-72
2023/06/03 18:07:44;;;;;;;17.57;16.47;;;24.10;60.00;;;;;;4973221;28;20518;-72
2023/06/03 18:10:11;;;;;;;16.50;15.40;;;24.00;60.30;;;;;;4972982;28;20456;-72
2023/06/03 18:12:41;;;;;;;16.27;15.37;;;24.00;60.40;;;;;;4972951;28;20459;-73
2023/06/03 18:15:09;;;;;;;16.20;15.20;;;24.00;60.50;;;;;;4972866;28;20467;-73
2023/06/03 18:17:37;;;;;;;16.03;14.73;;;23.90;60.60;;;;;;4972708;28;20550;-73
2023/06/03 18:20:04;;;;;;;15.30;14.43;;;23.90;60.70;;;;;;4972764;28;20879;-72
2023/06/03 18:22:31;;;;;;;16.33;15.33;;;23.90;61.20;;;;;;4972899;28;20447;-72
2023/06/03 18:24:58;;;;;;;15.90;14.90;;;23.80;61.60;;;;;;4972904;28;20448;-72
2023/06/03 18:27:24;;;;;;;16.63;15.57;;;23.80;61.70;;;;;;4972535;28;20444;-72
2023/06/03 18:29:52;;;;;;;17.83;16.53;;;23.60;61.60;;;;;;4972469;28;20484;-72
2023/06/03 18:32:19;;;;;;;15.80;14.90;;;23.50;61.60;;;;;;4972438;28;20455;-72
2023/06/03 18:34:46;;;;;;;16.10;15.20;;;23.50;61.90;;;;;;4972544;28;20459;-72
2023/06/03 18:37:13;;;;;;;15.83;15.03;;;23.40;62.30;;;;;;4972556;28;20459;-72
2023/06/03 18:39:39;;;;;;;16.20;15.00;;;23.40;62.60;;;;;;4972327;28;20463;-71
2023/06/03 18:42:06;;;;;;;16.97;15.93;;;23.30;62.50;;;;;;4972429;28;20456;-71
2023/06/03 18:44:33;;;;;;;16.47;15.37;;;23.30;62.60;;;;;;4972330;28;20455;-72
2023/06/03 18:47:03;;;;;;;15.90;15.00;;;23.20;62.80;;;;;;4972469;28;20462;-72
2023/06/03 18:49:30;;;;;;;15.70;14.90;;;23.10;63.00;;;;;;4979620;28;20523;-72
2023/06/03 18:51:56;;;;;;;16.20;15.20;;;23.00;63.20;;;;;;4980707;28;20440;-72
2023/06/03 18:54:23;;;;;;;16.70;15.70;;;22.90;63.60;;;;;;4982057;28;20461;-72
2023/06/03 18:56:50;;;;;;;16.93;15.93;;;22.80;63.50;;;;;;4981750;28;20470;-72
2023/06/03 18:59:17;;;;;;;17.10;16.00;;;22.70;63.90;;;;;;4979981;28;20439;-72
2023/06/03 19:01:45;;;;;;;18.87;17.77;;;22.70;64.40;;;;;;4981712;28;20478;-73
2023/06/03 19:04:13;;;;;;;16.50;15.60;;;22.60;64.70;;;;;;4990818;28;20486;-72
2023/06/03 19:06:40;;;;;;;15.93;15.03;;;22.60;65.00;;;;;;4985356;28;20451;-72
2023/06/03 19:09:08;;;;;;;16.10;15.20;;;22.50;64.90;;;;;;4980314;28;20712;-71
2023/06/03 19:11:36;;;;;;;15.00;14.10;;;22.50;65.00;;;;;;4981299;28;20443;-72
2023/06/03 19:14:09;;;;;;;17.20;15.80;;;22.40;65.40;;;;;;4982229;28;20456;-72
2023/06/03 19:16:38;;;;;;;15.90;14.90;;;22.30;65.70;;;;;;4981019;28;20862;-72
2023/06/03 19:19:05;;;;;;;16.07;14.97;;;22.20;65.80;;;;;;4979947;28;20652;-72
2023/06/03 19:21:33;;;;;;;16.03;14.90;;;22.20;66.10;;;;;;4981557;28;20489;-72
2023/06/03 19:23:59;;;;;;;15.63;14.40;;;22.10;66.20;;;;;;4981758;28;20439;-72
2023/06/03 19:26:26;;;;;;;15.70;14.60;;;22.00;66.50;;;;;;4980043;28;20448;-72
2023/06/03 19:28:56;;;;;;;16.53;15.30;;;22.00;66.70;;;;;;4980978;28;20486;-72
2023/06/03 19:31:23;;;;;;;15.53;14.73;;;21.90;67.20;;;;;;4981702;28;20546;-72
2023/06/03 19:33:50;;;;;;;15.30;14.40;;;21.80;67.20;;;;;;4977694;28;20835;-72
2023/06/03 19:36:16;;;;;;;15.47;14.50;;;21.70;67.60;;;;;;4980669;28;20447;-72
2023/06/03 19:38:45;;;;;;;15.90;14.43;;;21.70;67.90;;;;;;4981924;28;20451;-73
2023/06/03 19:41:11;;;;;;;14.60;13.80;;;21.60;68.00;;;;;;4980111;28;20456;-72
2023/06/03 19:43:38;;;;;;;13.80;13.00;;;21.60;68.20;;;;;;4980319;28;20443;-72
2023/06/03 19:46:05;;;;;;;14.90;14.00;;;21.50;68.40;;;;;;4981667;28;20449;-72
2023/06/03 19:48:33;;;;;;;14.27;13.33;;;21.40;68.60;;;;;;4980067;28;20451;-72
2023/06/03 19:51:00;;;;;;;17.37;16.00;;;21.40;68.70;;;;;;4980228;28;20439;-73
2023/06/03 19:53:27;;;;;;;14.50;13.77;;;21.40;69.00;;;;;;4981579;28;20443;-72
2023/06/03 19:55:56;;;;;;;16.20;15.20;;;21.30;69.00;;;;;;4980250;28;20570;-72
2023/06/03 19:58:22;;;;;;;14.40;13.37;;;21.30;69.20;;;;;;4990635;28;20486;-72
2023/06/03 20:00:50;;;;;;;15.50;14.40;;;21.20;69.30;;;;;;4990590;28;20462;-72
2023/06/03 20:03:16;;;;;;;15.13;14.10;;;21.20;69.50;;;;;;4990405;28;20514;-72
2023/06/03 20:05:43;;;;;;;13.97;12.93;;;21.20;69.80;;;;;;4990916;28;20447;-72
2023/06/03 20:08:10;;;;;;;14.83;13.83;;;21.20;70.10;;;;;;4990599;28;20450;-72
2023/06/03 20:10:38;;;;;;;15.30;14.10;;;21.10;70.00;;;;;;4990524;28;20690;-72
2023/06/03 20:13:06;;;;;;;15.37;14.20;;;21.10;70.20;;;;;;4990464;28;20728;-72
2023/06/03 20:15:33;;;;;;;14.70;13.73;;;21.00;70.30;;;;;;4990460;28;20455;-72
2023/06/03 20:17:59;;;;;;;14.33;13.50;;;21.00;70.50;;;;;;4989797;28;20975;-72
2023/06/03 20:20:26;;;;;;;15.77;14.67;;;21.10;70.70;;;;;;4990530;28;20443;-72
2023/06/03 20:22:53;;;;;;;15.13;14.13;;;21.00;71.60;;;;;;4990342;28;20446;-72
2023/06/03 20:25:20;;;;;;;14.70;13.50;;;21.00;71.00;;;;;;4990674;28;20454;-72
2023/06/03 20:27:49;;;;;;;15.20;14.13;;;21.00;71.20;;;;;;4990469;28;20469;-72
2023/06/03 20:30:17;;;;;;;14.27;13.47;;;21.00;71.30;;;;;;4990421;28;20904;-72
2023/06/03 20:32:44;;;;;;;13.93;12.90;;;21.00;71.40;;;;;;4990551;28;20447;-72
2023/06/03 20:35:10;;;;;;;14.90;13.70;;;21.10;71.60;;;;;;4990472;28;20809;-73
2023/06/03 20:37:37;;;;;;;14.77;13.57;;;21.00;71.80;;;;;;4990140;28;20969;-72
2023/06/03 20:40:04;;;;;;;15.80;14.80;;;21.00;72.40;;;;;;4990137;28;20450;-72
2023/06/03 20:42:31;;;;;;;14.00;13.20;;;20.90;72.30;;;;;;4990286;28;20486;-72
2023/06/03 20:44:58;;;;;;;14.43;13.43;;;20.90;72.60;;;;;;4990416;28;20936;-73
2023/06/03 20:47:26;;;;;;;14.87;13.70;;;20.80;72.50;;;;;;4990307;28;20454;-72
2023/06/03 20:49:52;;;;;;;14.37;13.47;;;20.70;72.50;;;;;;4990181;28;20502;-72
2023/06/03 20:52:19;;;;;;;15.17;14.17;;;20.70;72.70;;;;;;4990150;28;20766;-72
2023/06/03 20:54:46;;;;;;;15.33;14.23;;;20.70;73.50;;;;;;4990452;28;20851;-72
2023/06/03 20:57:13;;;;;;;15.43;14.53;;;20.60;73.90;;;;;;4990432;28;20454;-72
2023/06/03 20:59:40;;;;;;;14.90;14.00;;;20.60;74.70;;;;;;4990109;28;20465;-72
2023/06/03 21:02:07;;;;;;;15.70;14.60;;;20.50;75.30;;;;;;4990026;28;20479;-72
2023/06/03 21:04:35;;;;;;;14.57;13.70;;;20.30;76.10;;;;;;4989832;28;20562;-73
2023/06/03 21:07:05;;;;;;;16.80;15.80;;;20.20;76.70;;;;;;4990106;28;20474;-72
2023/06/03 21:09:31;;;;;;;15.90;14.90;;;20.20;77.40;;;;;;4990013;28;20490;-74
2023/06/03 21:11:58;;;;;;;17.30;15.70;;;20.10;77.80;;;;;;4990251;28;20446;-73
2023/06/03 21:14:25;;;;;;;15.60;14.60;;;20.10;78.80;;;;;;4990068;28;20457;-73
2023/06/03 21:16:51;;;;;;;14.93;14.03;;;20.20;78.80;;;;;;4990001;28;20451;-69
2023/06/03 21:19:18;;;;;;;16.97;15.57;;;20.10;80.00;;;;;;4980265;28;20444;-71
2023/06/03 21:21:46;;;;;;;15.80;14.80;;;20.20;79.80;;;;;;4970623;28;20451;-71
2023/06/03 21:24:13;;;;;;;16.80;15.67;;;20.20;79.80;;;;;;4970779;28;20479;-71
2023/06/03 21:26:40;;;;;;;15.23;14.23;;;20.20;80.80;;;;;;4970453;28;20448;-70
2023/06/03 21:29:07;;;;;;;17.27;15.70;;;20.10;80.70;;;;;;4971320;28;20493;-71
2023/06/03 21:31:34;;;;;;;16.77;15.67;;;20.00;82.50;;;;;;4973825;28;20443;-71
2023/06/03 21:34:01;;;;;;;17.00;15.87;;;20.00;84.10;;;;;;4974037;28;20876;-70
2023/06/03 21:36:27;;;;;;;17.77;16.40;;;19.90;84.70;;;;;;4973991;28;20462;-70
2023/06/03 21:38:55;;;;;;;17.03;16.00;;;19.90;85.90;;;;;;4973772;28;20456;-71
2023/06/03 21:41:22;;;;;;;17.40;16.23;;;19.80;86.80;;;;;;4973610;28;21009;-71
2023/06/03 21:43:49;;;;;;;16.50;15.30;;;19.70;88.00;;;;;;4973543;28;20447;-71
